Current Ellington METAR:

KEFD 251750Z 05005KT 10SM FU CLR 28/13 A3012 RMK CONTROLLED BURN AT AIPORT


Current Ellington TAF:

TAF KEFD 251200Z 2512/2618 VRB06KT 9999 SKC QNH3002INS TX28/2521Z TN16/2512Z

The location could not be found.

Current Aircraft on Radar: